Time;durP1;ratioP1;P1;durP2;ratioP2;P2;SDS_P1;SDS_P2;PMS_P1;PMS_P2;Temp;Humidity;BMP_temperature;BMP_pressure;BME280_temperature;BME280_humidity;BME280_pressure;Samples;Min_cycle;Max_cycle;Signal;HPM_P1;HPM_P2
2024/03/24 00:01:57;;;;;;;22.00;21.10;;;20.90;59.80;;;;;;5082585;28;20528;-71
2024/03/24 00:04:23;;;;;;;21.37;20.50;;;20.90;59.70;;;;;;5080395;28;20467;-71
2024/03/24 00:06:50;;;;;;;21.37;20.57;;;20.90;59.80;;;;;;5080023;28;20942;-71
2024/03/24 00:09:15;;;;;;;22.07;21.17;;;20.90;59.70;;;;;;5083416;28;20197;-71
2024/03/24 00:11:42;;;;;;;21.50;20.50;;;20.80;59.60;;;;;;5083859;28;20438;-71
2024/03/24 00:14:10;;;;;;;21.77;20.90;;;20.80;59.60;;;;;;5080671;28;20228;-71
2024/03/24 00:16:40;;;;;;;21.53;20.73;;;20.80;59.70;;;;;;5079741;28;20935;-71
2024/03/24 00:19:08;;;;;;;21.33;20.53;;;20.80;59.60;;;;;;5064605;28;20471;-71
2024/03/24 00:21:34;;;;;;;21.10;20.30;;;20.80;59.70;;;;;;5083564;28;20466;-71
2024/03/24 00:24:01;;;;;;;21.30;20.40;;;20.80;59.70;;;;;;5081705;28;20450;-71
2024/03/24 00:26:32;;;;;;;20.43;19.67;;;20.80;59.70;;;;;;5079675;28;20467;-71
2024/03/24 00:28:58;;;;;;;21.70;20.80;;;20.80;59.60;;;;;;5081332;28;20442;-71
2024/03/24 00:31:26;;;;;;;22.70;21.70;;;20.80;59.50;;;;;;5083727;28;20438;-71
2024/03/24 00:33:52;;;;;;;21.30;20.50;;;20.80;59.60;;;;;;5082898;28;20463;-71
2024/03/24 00:36:19;;;;;;;21.67;20.77;;;20.80;59.60;;;;;;5080082;28;20964;-71
2024/03/24 00:38:45;;;;;;;21.63;20.73;;;20.80;59.60;;;;;;5079554;28;20710;-71
2024/03/24 00:41:12;;;;;;;21.80;21.00;;;20.80;59.60;;;;;;5081246;28;20477;-71
2024/03/24 00:43:38;;;;;;;21.10;20.30;;;20.80;59.60;;;;;;5083286;28;20486;-71
2024/03/24 00:46:08;;;;;;;22.17;21.27;;;20.80;59.60;;;;;;5081305;28;20438;-71
2024/03/24 00:48:36;;;;;;;21.77;20.87;;;20.80;59.60;;;;;;5079904;28;20444;-71
2024/03/24 00:51:03;;;;;;;21.70;20.90;;;20.80;59.60;;;;;;5079904;28;20443;-72
2024/03/24 00:53:31;;;;;;;21.50;20.60;;;20.80;59.60;;;;;;5083269;28;20845;-72
2024/03/24 00:55:58;;;;;;;21.60;20.70;;;20.80;59.60;;;;;;5082077;28;20537;-72
2024/03/24 00:58:24;;;;;;;21.40;20.50;;;20.80;59.70;;;;;;5079553;28;20443;-72
2024/03/24 01:00:50;;;;;;;21.50;20.70;;;20.80;59.70;;;;;;5071253;28;20450;-72
2024/03/24 01:03:17;;;;;;;27.53;26.53;;;20.70;59.50;;;;;;5083313;28;20224;-72
2024/03/24 01:05:46;;;;;;;27.30;26.30;;;20.70;59.50;;;;;;5083083;28;20478;-71
2024/03/24 01:08:12;;;;;;;25.97;24.97;;;20.80;59.50;;;;;;5079421;28;20446;-72
2024/03/24 01:10:39;;;;;;;24.70;23.80;;;20.80;59.40;;;;;;5083599;28;20438;-72
2024/03/24 01:13:05;;;;;;;25.23;24.23;;;20.70;59.40;;;;;;5081600;28;20217;-72
2024/03/24 01:15:32;;;;;;;24.90;23.90;;;20.80;59.50;;;;;;5086299;28;20438;-72
2024/03/24 01:17:58;;;;;;;25.87;24.87;;;20.70;59.40;;;;;;5085040;28;20706;-72
2024/03/24 01:20:25;;;;;;;26.07;25.07;;;20.70;59.50;;;;;;5074458;28;21085;-72
2024/03/24 01:22:54;;;;;;;20.90;20.10;;;20.70;59.50;;;;;;5082872;28;21076;-72
2024/03/24 01:25:24;;;;;;;21.50;20.60;;;20.70;59.50;;;;;;5086482;28;20450;-72
2024/03/24 01:27:50;;;;;;;21.20;20.30;;;20.70;60.00;;;;;;5078972;28;20497;-72
2024/03/24 01:30:17;;;;;;;21.37;20.47;;;20.70;59.50;;;;;;5074465;28;20462;-71
2024/03/24 01:32:43;;;;;;;25.13;24.13;;;20.70;59.50;;;;;;5082609;28;20208;-72
2024/03/24 01:35:10;;;;;;;25.73;24.80;;;20.70;59.50;;;;;;5084991;28;20830;-72
2024/03/24 01:37:37;;;;;;;25.53;24.53;;;20.70;59.60;;;;;;5081092;28;20281;-72
2024/03/24 01:40:07;;;;;;;25.30;24.40;;;20.70;59.50;;;;;;5083898;28;20474;-70
2024/03/24 01:42:33;;;;;;;21.53;20.63;;;20.70;59.40;;;;;;5086264;28;20802;-70
2024/03/24 01:44:59;;;;;;;21.53;20.63;;;20.70;59.20;;;;;;5084805;28;20489;-71
2024/03/24 01:47:25;;;;;;;21.50;20.60;;;20.70;59.70;;;;;;5081866;28;20197;-71
2024/03/24 01:49:52;;;;;;;22.80;21.80;;;20.70;59.20;;;;;;5082855;28;20447;-70
2024/03/24 01:52:18;;;;;;;21.00;20.10;;;20.70;59.10;;;;;;5079675;28;20205;-71
2024/03/24 01:54:45;;;;;;;21.47;20.67;;;20.70;59.20;;;;;;5082412;28;20459;-71
2024/03/24 01:57:12;;;;;;;21.47;20.67;;;20.70;59.20;;;;;;5084437;28;20475;-71
2024/03/24 01:59:39;;;;;;;23.07;22.17;;;20.70;59.10;;;;;;5081818;28;21057;-71
2024/03/24 02:02:05;;;;;;;22.00;21.10;;;20.70;59.20;;;;;;5083877;28;20435;-71
2024/03/24 02:04:33;;;;;;;21.00;20.20;;;20.70;59.20;;;;;;5085684;28;20473;-71
2024/03/24 02:07:00;;;;;;;21.77;20.97;;;20.70;59.20;;;;;;5084474;28;20215;-71
2024/03/24 02:09:27;;;;;;;22.07;21.17;;;20.70;59.20;;;;;;5081848;28;20843;-71
2024/03/24 02:11:52;;;;;;;21.10;20.27;;;20.70;59.20;;;;;;5082007;28;20849;-71
2024/03/24 02:14:23;;;;;;;21.23;20.43;;;20.70;59.30;;;;;;5071400;28;20473;-71
2024/03/24 02:16:50;;;;;;;22.03;21.03;;;20.70;59.10;;;;;;5085110;28;20208;-71
2024/03/24 02:19:17;;;;;;;21.40;20.60;;;20.70;59.00;;;;;;5081935;28;20482;-71
2024/03/24 02:21:44;;;;;;;21.53;20.57;;;20.70;58.90;;;;;;5081866;28;20446;-71
2024/03/24 02:24:13;;;;;;;21.57;20.67;;;20.70;58.80;;;;;;5083798;28;20509;-71
2024/03/24 02:26:40;;;;;;;21.40;20.50;;;20.70;58.80;;;;;;5067227;28;20515;-71
2024/03/24 02:29:12;;;;;;;26.17;25.17;;;20.70;58.90;;;;;;5083282;28;20434;-71
2024/03/24 02:31:39;;;;;;;26.60;25.60;;;20.70;58.90;;;;;;5081650;28;20455;-71
2024/03/24 02:34:05;;;;;;;22.03;21.13;;;20.70;58.90;;;;;;5082751;28;20459;-71
2024/03/24 02:36:31;;;;;;;21.60;20.80;;;20.70;58.90;;;;;;5084591;28;20438;-70
2024/03/24 02:38:58;;;;;;;21.07;20.10;;;20.70;59.00;;;;;;5084562;28;20644;-71
2024/03/24 02:41:27;;;;;;;21.23;20.30;;;20.70;58.90;;;;;;5081615;28;20463;-71
2024/03/24 02:43:55;;;;;;;21.50;20.70;;;20.60;58.90;;;;;;5080888;28;20468;-71
2024/03/24 02:46:24;;;;;;;21.50;20.70;;;20.70;59.00;;;;;;5072931;28;20447;-71
2024/03/24 02:48:50;;;;;;;21.60;20.80;;;20.70;59.00;;;;;;5080958;28;20458;-71
2024/03/24 02:51:17;;;;;;;21.70;20.80;;;20.60;58.80;;;;;;5084170;28;20435;-71
2024/03/24 02:53:43;;;;;;;21.40;20.50;;;20.70;58.70;;;;;;5082125;28;20598;-71
2024/03/24 02:56:11;;;;;;;20.87;20.07;;;20.70;58.50;;;;;;5082834;28;20795;-71
2024/03/24 02:58:38;;;;;;;21.60;20.50;;;20.60;58.20;;;;;;5084537;28;20212;-71
2024/03/24 03:01:05;;;;;;;22.00;21.00;;;20.70;58.20;;;;;;5082973;28;20848;-71
2024/03/24 03:03:33;;;;;;;22.13;21.23;;;20.60;58.10;;;;;;5077841;28;20484;-71
2024/03/24 03:06:01;;;;;;;21.40;20.60;;;20.70;58.10;;;;;;5083651;28;20431;-71
2024/03/24 03:08:27;;;;;;;22.77;21.87;;;20.70;58.10;;;;;;5080424;28;20447;-71
2024/03/24 03:10:54;;;;;;;22.23;21.37;;;20.70;58.20;;;;;;5080713;28;20442;-71
2024/03/24 03:13:21;;;;;;;22.87;21.87;;;20.60;58.10;;;;;;5088011;28;20224;-71
2024/03/24 03:15:49;;;;;;;22.53;21.63;;;20.60;58.20;;;;;;5080706;28;20443;-72
2024/03/24 03:18:16;;;;;;;23.17;22.07;;;20.60;58.20;;;;;;5082681;28;20446;-72
2024/03/24 03:20:43;;;;;;;22.47;21.57;;;20.60;58.20;;;;;;5083413;28;20504;-72
2024/03/24 03:23:09;;;;;;;23.70;22.73;;;20.60;58.20;;;;;;5075157;28;20455;-72
2024/03/24 03:25:36;;;;;;;22.40;21.20;;;20.60;58.20;;;;;;5085844;28;20439;-72
2024/03/24 03:28:02;;;;;;;23.20;22.30;;;20.60;58.10;;;;;;5080554;28;20201;-72
2024/03/24 03:30:30;;;;;;;22.67;21.57;;;20.60;57.80;;;;;;5083868;28;20438;-72
2024/03/24 03:32:58;;;;;;;22.50;21.60;;;20.60;57.70;;;;;;5075566;28;20435;-72
2024/03/24 03:35:25;;;;;;;22.10;21.20;;;20.60;57.70;;;;;;5072351;28;20467;-72
2024/03/24 03:37:52;;;;;;;22.17;21.17;;;20.60;57.60;;;;;;5079258;28;20966;-72
2024/03/24 03:40:18;;;;;;;22.20;21.30;;;20.60;57.60;;;;;;5082775;28;20477;-72
2024/03/24 03:42:46;;;;;;;22.40;21.50;;;20.60;57.70;;;;;;5077040;28;20439;-72
2024/03/24 03:45:15;;;;;;;22.30;21.40;;;20.60;58.30;;;;;;5082083;28;20607;-72
2024/03/24 03:47:42;;;;;;;22.33;21.43;;;20.60;57.80;;;;;;5083049;28;20478;-71
2024/03/24 03:50:17;;;;;;;23.50;22.40;;;20.60;57.80;;;;;;5081931;28;20445;-71
2024/03/24 03:52:47;;;;;;;23.30;22.40;;;20.60;57.90;;;;;;5080074;28;20454;-71
2024/03/24 03:55:13;;;;;;;22.13;21.23;;;20.60;57.90;;;;;;5082073;28;20452;-71
2024/03/24 03:57:40;;;;;;;23.00;22.10;;;20.60;57.70;;;;;;5083039;28;20525;-71
2024/03/24 04:00:10;;;;;;;24.03;23.03;;;20.60;57.50;;;;;;5082009;28;20505;-72
2024/03/24 04:02:39;;;;;;;22.73;21.83;;;20.60;57.30;;;;;;5079843;28;20513;-72
2024/03/24 04:05:07;;;;;;;24.10;22.33;;;20.60;57.30;;;;;;5080623;28;20887;-72
2024/03/24 04:07:36;;;;;;;23.53;22.63;;;20.60;57.30;;;;;;5083203;28;20794;-72
2024/03/24 04:10:02;;;;;;;23.37;22.47;;;20.60;57.30;;;;;;5082691;28;20439;-72
2024/03/24 04:12:32;;;;;;;23.17;22.27;;;20.60;57.30;;;;;;5079603;28;20533;-72
2024/03/24 04:14:59;;;;;;;22.70;21.80;;;20.60;57.20;;;;;;5079983;28;21018;-72
2024/03/24 04:17:26;;;;;;;23.00;22.10;;;20.60;57.30;;;;;;5071195;28;20496;-72
2024/03/24 04:19:53;;;;;;;22.90;22.00;;;20.60;57.50;;;;;;5079707;28;20533;-72
2024/03/24 04:22:20;;;;;;;23.60;22.70;;;20.60;57.50;;;;;;5083723;28;20883;-72
2024/03/24 04:24:48;;;;;;;22.30;21.50;;;20.60;57.60;;;;;;5080058;28;20459;-72
2024/03/24 04:27:15;;;;;;;22.83;21.93;;;20.60;57.70;;;;;;5081811;28;20454;-72
2024/03/24 04:29:41;;;;;;;24.10;22.73;;;20.60;57.80;;;;;;5083958;28;20442;-72
2024/03/24 04:32:08;;;;;;;23.80;22.80;;;20.60;57.70;;;;;;5082024;28;20461;-72
2024/03/24 04:34:34;;;;;;;22.70;21.80;;;20.60;57.50;;;;;;5079988;28;20224;-72
2024/03/24 04:37:00;;;;;;;22.60;21.70;;;20.60;57.30;;;;;;5080627;28;20459;-72
2024/03/24 04:39:27;;;;;;;23.30;22.30;;;20.60;57.10;;;;;;5072047;28;20197;-72
2024/03/24 04:41:58;;;;;;;23.23;22.23;;;20.60;57.20;;;;;;5083356;28;20446;-72
2024/03/24 04:44:25;;;;;;;23.27;22.27;;;20.60;57.10;;;;;;5080264;28;20546;-72
2024/03/24 04:46:53;;;;;;;22.37;21.53;;;20.60;57.10;;;;;;5079687;28;21215;-72
2024/03/24 04:49:22;;;;;;;22.60;21.70;;;20.60;57.00;;;;;;5084259;28;20481;-73
2024/03/24 04:51:48;;;;;;;23.23;22.33;;;20.60;56.90;;;;;;5086959;28;20442;-72
2024/03/24 04:54:15;;;;;;;21.83;21.00;;;20.60;56.80;;;;;;5093754;22;20498;-66
2024/03/24 04:56:41;;;;;;;22.53;21.63;;;20.60;56.70;;;;;;5084652;28;20215;-66
2024/03/24 04:59:09;;;;;;;22.47;21.57;;;20.60;56.60;;;;;;5083659;28;20439;-66
2024/03/24 05:01:35;;;;;;;23.00;22.10;;;20.60;56.40;;;;;;5086272;28;21022;-65
2024/03/24 05:04:04;;;;;;;23.30;22.40;;;20.60;56.40;;;;;;5083210;28;20462;-62
2024/03/24 05:06:30;;;;;;;23.10;22.20;;;20.60;56.80;;;;;;5074773;28;20682;-64
2024/03/24 05:08:57;;;;;;;24.03;23.13;;;20.60;57.20;;;;;;5082788;28;20937;-63
2024/03/24 05:11:23;;;;;;;24.07;23.17;;;20.60;57.20;;;;;;5085511;28;20442;-66
2024/03/24 05:13:49;;;;;;;23.40;22.50;;;20.60;57.20;;;;;;5086317;28;20860;-65
2024/03/24 05:16:17;;;;;;;24.00;23.10;;;20.60;57.40;;;;;;5083876;28;20546;-65
2024/03/24 05:18:44;;;;;;;23.50;22.60;;;20.70;57.40;;;;;;5082487;28;20530;-66
2024/03/24 05:21:10;;;;;;;22.83;21.93;;;20.60;57.40;;;;;;5083617;28;20490;-66
2024/03/24 05:23:37;;;;;;;23.33;22.43;;;20.70;57.50;;;;;;5086041;28;20937;-65
2024/03/24 05:26:04;;;;;;;22.90;22.10;;;20.70;57.50;;;;;;5086340;28;20207;-65
2024/03/24 05:28:30;;;;;;;23.00;22.20;;;20.70;57.50;;;;;;5090573;28;20447;-65
2024/03/24 05:30:57;;;;;;;22.80;21.90;;;20.70;57.50;;;;;;5076805;28;21044;-65
2024/03/24 05:33:25;;;;;;;23.63;22.73;;;20.70;57.60;;;;;;5085268;28;21010;-67
2024/03/24 05:35:58;;;;;;;23.57;22.67;;;20.70;57.60;;;;;;5085930;28;20447;-66
2024/03/24 05:38:24;;;;;;;22.20;21.40;;;20.70;57.50;;;;;;5082500;28;20471;-65
2024/03/24 05:40:56;;;;;;;23.17;22.37;;;20.80;57.60;;;;;;5082034;28;20483;-66
2024/03/24 05:43:23;;;;;;;22.60;21.80;;;20.80;57.70;;;;;;5084986;28;20439;-65
2024/03/24 05:45:49;;;;;;;23.20;22.30;;;20.80;57.60;;;;;;5085589;28;20450;-66
2024/03/24 05:48:15;;;;;;;23.67;22.67;;;20.80;57.60;;;;;;5083576;28;20442;-66
2024/03/24 05:50:43;;;;;;;22.60;21.80;;;20.80;57.60;;;;;;5081863;28;20193;-66
2024/03/24 05:53:10;;;;;;;23.50;22.60;;;20.80;57.60;;;;;;5082643;28;20458;-66
2024/03/24 05:55:35;;;;;;;23.53;22.57;;;20.80;57.60;;;;;;5085351;28;20474;-65
2024/03/24 05:58:04;;;;;;;23.30;22.40;;;20.80;57.60;;;;;;5085104;28;20434;-67
2024/03/24 06:00:29;;;;;;;19.10;18.30;;;20.80;57.70;;;;;;5072112;28;20457;-68
2024/03/24 06:02:56;;;;;;;18.50;17.80;;;20.80;57.90;;;;;;5080932;28;20430;-64
2024/03/24 06:05:22;;;;;;;21.17;20.27;;;20.90;57.60;;;;;;5081279;28;20229;-64
2024/03/24 06:07:51;;;;;;;20.80;20.00;;;21.10;57.60;;;;;;5080820;28;20972;-66
2024/03/24 06:10:17;;;;;;;23.60;22.80;;;21.10;57.60;;;;;;5083699;28;20471;-67
2024/03/24 06:12:43;;;;;;;21.35;20.55;;;21.10;57.20;;;;;;5084086;28;20774;-67
2024/03/24 06:15:10;;;;;;;20.10;19.00;;;21.10;57.20;;;;;;5081327;28;20434;-66
2024/03/24 06:17:37;;;;;;;21.47;20.67;;;21.20;57.40;;;;;;5084789;28;20230;-65
2024/03/24 06:20:06;;;;;;;22.23;21.43;;;21.20;57.30;;;;;;5077130;28;20485;-64
2024/03/24 06:22:33;;;;;;;21.73;21.03;;;21.20;57.10;;;;;;5073562;28;20512;-64
2024/03/24 06:25:00;;;;;;;23.97;23.07;;;21.20;57.20;;;;;;5081285;28;20470;-63
2024/03/24 06:27:26;;;;;;;22.13;21.33;;;21.20;57.40;;;;;;5083821;28;20446;-64
2024/03/24 06:29:53;;;;;;;22.57;21.73;;;21.20;57.70;;;;;;5084615;28;20439;-63
2024/03/24 06:32:20;;;;;;;21.77;20.90;;;21.20;57.80;;;;;;5082577;28;20535;-65
2024/03/24 06:34:46;;;;;;;22.77;21.93;;;21.20;57.90;;;;;;5081090;28;20466;-64
2024/03/24 06:37:12;;;;;;;22.00;21.20;;;21.20;58.00;;;;;;5081625;28;20440;-64
2024/03/24 06:39:38;;;;;;;21.67;20.97;;;21.20;58.00;;;;;;5084465;28;20208;-69
2024/03/24 06:42:08;;;;;;;23.03;22.03;;;21.10;57.80;;;;;;5084750;28;20832;-66
2024/03/24 06:44:37;;;;;;;21.57;20.83;;;21.20;58.00;;;;;;5073148;28;20221;-70
2024/03/24 06:47:04;;;;;;;22.43;21.63;;;21.20;58.00;;;;;;5080543;28;20506;-68
2024/03/24 06:49:30;;;;;;;22.07;21.27;;;21.20;58.20;;;;;;5083920;28;20450;-70
2024/03/24 06:51:56;;;;;;;22.40;21.60;;;21.20;58.40;;;;;;5084339;28;20443;-68
2024/03/24 06:54:22;;;;;;;22.73;21.80;;;21.20;58.40;;;;;;5081996;28;20733;-69
2024/03/24 06:56:49;;;;;;;20.83;20.13;;;21.20;58.40;;;;;;5081101;28;20447;-71
2024/03/24 06:59:16;;;;;;;21.87;21.07;;;21.20;58.50;;;;;;5081178;28;20209;-69
2024/03/24 07:01:42;;;;;;;21.60;20.80;;;21.20;58.50;;;;;;5080807;28;20558;-69
2024/03/24 07:04:08;;;;;;;21.30;20.60;;;21.20;58.50;;;;;;5080978;28;20464;-70
2024/03/24 07:06:35;;;;;;;20.97;20.27;;;21.30;58.40;;;;;;5083930;28;20443;-68
2024/03/24 07:09:01;;;;;;;20.87;20.17;;;21.30;58.40;;;;;;5084787;28;20204;-70
2024/03/24 07:11:27;;;;;;;22.37;21.57;;;21.30;58.30;;;;;;5080942;28;20518;-71
2024/03/24 07:13:53;;;;;;;22.17;21.40;;;21.30;58.40;;;;;;5081600;28;20232;-69
2024/03/24 07:16:21;;;;;;;21.43;20.63;;;21.30;58.40;;;;;;5083103;28;20440;-70
2024/03/24 07:18:47;;;;;;;23.13;22.33;;;21.30;58.30;;;;;;5085675;28;20571;-70
2024/03/24 07:21:14;;;;;;;21.40;20.70;;;21.30;58.40;;;;;;5084547;28;20475;-70
2024/03/24 07:23:39;;;;;;;22.80;22.00;;;21.40;58.30;;;;;;5081612;28;20212;-69
2024/03/24 07:26:06;;;;;;;22.80;22.00;;;21.40;58.40;;;;;;5080943;28;20443;-69
2024/03/24 07:28:32;;;;;;;23.43;22.53;;;21.40;58.30;;;;;;5083402;28;20212;-70
2024/03/24 07:30:58;;;;;;;21.80;21.00;;;21.40;58.30;;;;;;5084267;28;20524;-69
2024/03/24 07:33:25;;;;;;;21.97;21.17;;;21.40;58.30;;;;;;5081465;28;20201;-69
2024/03/24 07:35:52;;;;;;;21.97;21.07;;;21.40;58.00;;;;;;5080155;28;20454;-68
2024/03/24 07:38:18;;;;;;;23.00;22.20;;;21.40;58.00;;;;;;5080904;28;20439;-68
2024/03/24 07:40:45;;;;;;;21.97;21.17;;;21.40;57.80;;;;;;5083571;28;20890;-68
2024/03/24 07:43:11;;;;;;;22.03;21.20;;;21.50;58.20;;;;;;5083250;28;20200;-70
2024/03/24 07:45:38;;;;;;;22.93;22.10;;;21.50;57.50;;;;;;5080161;28;20903;-70
2024/03/24 07:48:05;;;;;;;22.80;21.90;;;21.50;57.50;;;;;;5079776;28;20443;-69
2024/03/24 07:50:33;;;;;;;23.43;22.63;;;21.50;57.40;;;;;;5082977;28;20434;-69
2024/03/24 07:52:59;;;;;;;23.47;22.67;;;21.50;57.40;;;;;;5083524;28;20445;-68
2024/03/24 07:55:26;;;;;;;21.73;21.03;;;21.50;57.30;;;;;;5081008;28;20471;-68
2024/03/24 07:57:51;;;;;;;22.20;21.40;;;21.60;57.30;;;;;;5079387;28;20200;-69
2024/03/24 08:00:19;;;;;;;22.13;21.33;;;21.60;57.30;;;;;;5080628;28;20479;-69
2024/03/24 08:02:48;;;;;;;22.70;21.90;;;21.60;57.30;;;;;;5083174;28;20571;-68
2024/03/24 08:05:16;;;;;;;21.90;21.00;;;21.60;57.30;;;;;;5082289;28;20463;-69
2024/03/24 08:07:43;;;;;;;21.50;20.70;;;21.60;57.20;;;;;;5079470;28;20512;-66
2024/03/24 08:10:12;;;;;;;21.80;20.90;;;21.60;57.20;;;;;;5080005;28;20951;-69
2024/03/24 08:12:40;;;;;;;22.37;21.47;;;21.70;59.00;;;;;;5071989;28;20519;-67
2024/03/24 08:15:07;;;;;;;21.37;20.57;;;21.70;58.30;;;;;;5079679;28;20475;-68
2024/03/24 08:17:33;;;;;;;22.37;21.47;;;21.70;57.80;;;;;;5085928;28;20435;-68
2024/03/24 08:20:00;;;;;;;24.13;22.50;;;21.80;57.60;;;;;;5079874;28;20450;-70
2024/03/24 08:22:26;;;;;;;22.10;21.20;;;21.80;57.90;;;;;;5082104;28;20227;-67
2024/03/24 08:24:54;;;;;;;22.43;21.43;;;21.80;57.50;;;;;;5087191;28;20462;-66
2024/03/24 08:27:20;;;;;;;22.10;21.30;;;21.80;57.20;;;;;;5085367;28;20204;-69
2024/03/24 08:29:47;;;;;;;22.67;21.87;;;21.80;57.20;;;;;;5083736;28;20518;-68
2024/03/24 08:32:14;;;;;;;21.60;20.80;;;21.90;57.30;;;;;;5083554;28;20446;-71
2024/03/24 08:34:41;;;;;;;22.23;21.43;;;21.90;57.40;;;;;;5083773;28;21044;-68
2024/03/24 08:37:06;;;;;;;21.00;20.30;;;21.90;57.10;;;;;;5082653;28;20798;-69
2024/03/24 08:39:34;;;;;;;18.83;18.02;;;21.90;56.80;;;;;;5086290;28;20443;-67
2024/03/24 08:42:01;;;;;;;20.93;20.23;;;21.90;56.90;;;;;;5086744;28;20220;-68
2024/03/24 08:44:28;;;;;;;21.80;21.00;;;21.90;56.80;;;;;;5084699;28;20458;-69
2024/03/24 08:46:53;;;;;;;21.20;20.50;;;22.00;57.00;;;;;;5082704;28;20439;-70
2024/03/24 08:49:20;;;;;;;20.80;20.10;;;22.00;57.00;;;;;;5084058;28;20803;-68
2024/03/24 08:51:49;;;;;;;21.23;20.37;;;22.00;57.30;;;;;;5086589;28;20659;-68
2024/03/24 08:54:16;;;;;;;21.63;20.83;;;22.00;57.20;;;;;;5085819;28;20557;-69
2024/03/24 08:56:42;;;;;;;21.87;21.00;;;22.00;57.60;;;;;;5082419;28;20446;-68
2024/03/24 08:59:10;;;;;;;22.50;21.70;;;22.00;57.20;;;;;;5090828;28;20442;-69
2024/03/24 09:01:36;;;;;;;22.10;21.33;;;22.00;57.40;;;;;;5086427;28;20224;-69
2024/03/24 09:04:02;;;;;;;20.40;19.60;;;22.00;57.20;;;;;;5079696;28;20455;-68
2024/03/24 09:06:28;;;;;;;22.00;21.20;;;22.00;57.30;;;;;;5082231;28;20207;-71
2024/03/24 09:08:56;;;;;;;23.97;23.07;;;21.90;57.30;;;;;;5082663;28;20439;-70
2024/03/24 09:11:21;;;;;;;24.17;23.17;;;22.00;57.30;;;;;;5082570;28;20201;-68
2024/03/24 09:13:48;;;;;;;27.33;26.23;;;22.00;57.20;;;;;;5082850;28;20459;-68
2024/03/24 09:16:15;;;;;;;27.57;26.23;;;22.00;57.20;;;;;;5085242;28;20219;-67
2024/03/24 09:18:42;;;;;;;26.33;25.33;;;22.00;57.10;;;;;;5082734;28;20812;-67
2024/03/24 09:21:10;;;;;;;25.27;24.27;;;22.00;57.10;;;;;;5082749;28;20470;-67
2024/03/24 09:23:37;;;;;;;26.73;25.73;;;22.00;57.10;;;;;;5085427;28;20933;-67
2024/03/24 09:26:03;;;;;;;26.40;25.30;;;22.00;57.10;;;;;;5085854;28;20811;-67
2024/03/24 09:28:31;;;;;;;25.90;24.73;;;22.00;57.00;;;;;;5086167;28;20491;-65
2024/03/24 09:30:57;;;;;;;26.10;25.10;;;22.00;56.90;;;;;;5082484;28;20447;-64
2024/03/24 09:33:25;;;;;;;26.70;25.40;;;22.00;56.80;;;;;;5083446;28;20930;-67
2024/03/24 09:35:51;;;;;;;26.27;25.17;;;22.00;56.60;;;;;;5084734;28;20450;-65
2024/03/24 09:38:18;;;;;;;28.07;26.97;;;22.00;55.10;;;;;;5084863;28;20438;-68
2024/03/24 09:40:44;;;;;;;29.43;28.23;;;22.00;55.90;;;;;;5082398;28;20478;-69
2024/03/24 09:43:12;;;;;;;24.60;23.60;;;22.00;56.70;;;;;;5081213;28;20430;-67
2024/03/24 09:45:38;;;;;;;27.77;26.50;;;22.00;56.20;;;;;;5084834;28;20455;-67
2024/03/24 09:48:12;;;;;;;27.63;26.33;;;22.10;55.70;;;;;;5085389;28;20446;-67
2024/03/24 09:50:39;;;;;;;27.80;26.60;;;22.00;54.70;;;;;;5082857;28;20590;-67
2024/03/24 09:53:06;;;;;;;26.30;25.10;;;22.10;55.80;;;;;;5082318;28;20506;-66
2024/03/24 09:55:32;;;;;;;26.23;25.03;;;22.10;56.10;;;;;;5083783;28;20463;-65
2024/03/24 09:57:59;;;;;;;26.43;25.43;;;22.10;56.40;;;;;;5085187;28;20503;-66
2024/03/24 10:00:26;;;;;;;26.87;25.67;;;22.10;56.30;;;;;;5083823;28;20207;-67
2024/03/24 10:02:53;;;;;;;27.57;26.37;;;22.10;56.40;;;;;;5081860;28;20440;-67
2024/03/24 10:05:20;;;;;;;27.13;26.03;;;22.00;56.60;;;;;;5081814;28;20462;-68
2024/03/24 10:07:49;;;;;;;27.57;26.47;;;22.00;56.60;;;;;;5079727;28;20483;-67
2024/03/24 10:10:15;;;;;;;28.47;27.27;;;22.00;56.30;;;;;;5085109;28;20431;-67
2024/03/24 10:12:53;;;;;;;26.80;25.63;;;22.00;56.20;;;;;;5081589;28;20780;-66
2024/03/24 10:15:22;;;;;;;26.97;25.77;;;22.00;56.40;;;;;;5081548;28;21170;-66
2024/03/24 10:17:58;;;;;;;26.87;25.67;;;22.00;56.60;;;;;;5084706;28;20512;-66
2024/03/24 10:20:24;;;;;;;25.40;24.40;;;22.00;56.80;;;;;;5083672;28;20430;-67
2024/03/24 10:22:56;;;;;;;26.93;25.60;;;22.00;56.80;;;;;;5081985;28;20947;-68
2024/03/24 10:25:23;;;;;;;28.30;26.70;;;22.00;57.00;;;;;;5082981;28;20470;-65
2024/03/24 10:27:50;;;;;;;26.43;25.30;;;22.00;57.00;;;;;;5081753;28;20454;-65
2024/03/24 10:30:16;;;;;;;27.33;26.20;;;22.00;56.50;;;;;;5082282;28;20432;-66
2024/03/24 10:32:43;;;;;;;26.70;25.70;;;22.00;56.20;;;;;;5073395;28;20432;-68
2024/03/24 10:35:10;;;;;;;26.30;25.10;;;22.00;56.20;;;;;;5081145;28;20460;-65
2024/03/24 10:37:36;;;;;;;26.97;25.87;;;22.10;56.60;;;;;;5081728;28;20447;-66
2024/03/24 10:40:04;;;;;;;29.03;27.93;;;22.10;56.60;;;;;;5081152;28;20446;-65
2024/03/24 10:42:33;;;;;;;27.30;26.20;;;22.00;57.10;;;;;;5082860;28;21001;-66
2024/03/24 10:45:03;;;;;;;27.50;26.40;;;22.10;57.00;;;;;;5084146;28;20458;-66
2024/03/24 10:47:30;;;;;;;27.00;25.80;;;22.00;57.20;;;;;;5082785;28;20442;-65
2024/03/24 10:49:58;;;;;;;28.50;27.20;;;22.00;56.90;;;;;;5081108;28;20444;-65
2024/03/24 10:52:26;;;;;;;26.10;25.00;;;22.00;57.30;;;;;;5081507;28;20436;-65
2024/03/24 10:54:52;;;;;;;26.93;25.83;;;22.00;57.30;;;;;;5084151;28;20465;-65
2024/03/24 10:57:20;;;;;;;27.27;26.17;;;22.10;57.30;;;;;;5083870;28;20446;-66
2024/03/24 10:59:47;;;;;;;27.83;26.73;;;22.00;57.10;;;;;;5073600;28;20440;-68
2024/03/24 11:02:17;;;;;;;27.97;26.87;;;22.00;56.70;;;;;;5080788;28;20490;-69
2024/03/24 11:04:44;;;;;;;27.87;26.57;;;22.00;57.30;;;;;;5083484;28;20493;-66
2024/03/24 11:07:12;;;;;;;30.80;29.60;;;22.00;57.30;;;;;;5083879;28;20512;-66
2024/03/24 11:09:38;;;;;;;26.60;25.53;;;22.10;57.30;;;;;;5081206;28;20791;-66
2024/03/24 11:12:07;;;;;;;26.77;25.67;;;22.00;56.50;;;;;;5080510;28;20448;-65
2024/03/24 11:14:35;;;;;;;26.53;25.10;;;22.10;57.60;;;;;;5081990;28;20311;-67
2024/03/24 11:17:03;;;;;;;26.10;25.10;;;22.00;57.30;;;;;;5083832;28;20813;-66
2024/03/24 11:19:29;;;;;;;26.77;25.67;;;22.10;57.90;;;;;;5082533;28;20442;-66
2024/03/24 11:21:57;;;;;;;27.80;26.60;;;22.10;57.30;;;;;;5080131;28;20482;-64
2024/03/24 11:24:24;;;;;;;28.13;26.90;;;22.10;57.30;;;;;;5080287;28;20862;-65
2024/03/24 11:26:51;;;;;;;27.63;26.33;;;22.10;57.20;;;;;;5083409;28;20499;-64
2024/03/24 11:29:52;;;;;;;28.97;27.57;;;22.00;57.10;;;;;;5083787;28;20461;-67
2024/03/24 11:32:19;;;;;;;28.60;27.50;;;22.00;56.90;;;;;;5076024;28;20532;-66
2024/03/24 11:34:51;;;;;;;26.97;25.87;;;22.10;57.20;;;;;;5073291;28;20485;-66
2024/03/24 11:37:17;;;;;;;26.83;25.53;;;22.00;56.80;;;;;;5083421;28;20434;-66
2024/03/24 11:39:43;;;;;;;27.00;25.80;;;22.00;56.90;;;;;;5080083;28;20431;-66
2024/03/24 11:42:13;;;;;;;28.00;26.90;;;22.00;56.90;;;;;;5079623;28;20526;-67
2024/03/24 11:44:41;;;;;;;28.10;26.90;;;22.00;57.00;;;;;;5082335;28;20221;-66
2024/03/24 11:47:10;;;;;;;27.43;26.00;;;22.00;56.40;;;;;;5083028;28;20437;-67
2024/03/24 11:49:47;;;;;;;27.33;26.13;;;22.00;57.10;;;;;;5081138;28;20439;-69
2024/03/24 11:52:16;;;;;;;27.20;25.87;;;22.00;57.10;;;;;;5079876;28;20431;-68
2024/03/24 11:54:43;;;;;;;26.63;25.50;;;22.00;57.30;;;;;;5080611;28;20463;-66
2024/03/24 11:57:10;;;;;;;28.90;27.70;;;22.10;57.10;;;;;;5079404;28;20448;-65
2024/03/24 11:59:35;;;;;;;28.77;27.47;;;22.00;57.20;;;;;;5081716;28;20466;-66
2024/03/24 12:02:03;;;;;;;28.50;27.30;;;22.10;57.70;;;;;;5083250;28;20470;-66
2024/03/24 12:04:30;;;;;;;26.20;25.10;;;22.10;57.80;;;;;;5082080;28;20216;-67
2024/03/24 12:06:57;;;;;;;27.40;26.30;;;22.10;57.30;;;;;;5079418;28;20472;-68
2024/03/24 12:09:23;;;;;;;27.47;26.23;;;22.10;57.10;;;;;;5079858;28;20442;-67
2024/03/24 12:11:54;;;;;;;27.37;26.20;;;22.10;56.90;;;;;;5083331;28;20427;-66
2024/03/24 12:14:20;;;;;;;27.30;26.10;;;22.10;56.90;;;;;;5082755;28;20212;-64
2024/03/24 12:16:47;;;;;;;27.93;26.63;;;22.10;56.80;;;;;;5079089;28;20431;-69
2024/03/24 12:19:14;;;;;;;27.20;26.00;;;22.10;56.70;;;;;;5079494;28;20447;-68
2024/03/24 12:21:42;;;;;;;26.50;25.20;;;22.10;57.60;;;;;;5081851;28;20478;-66
2024/03/24 12:24:08;;;;;;;28.13;26.73;;;22.10;57.50;;;;;;5076455;28;20825;-67
2024/03/24 12:26:35;;;;;;;28.90;27.60;;;22.10;57.60;;;;;;5080780;28;20515;-67
2024/03/24 12:29:01;;;;;;;24.03;23.03;;;22.10;56.50;;;;;;5083083;28;20444;-66